Madeline — WDE3220 — position and weather

sailwx.info

Track history (hours):
 
Tides and Currents Weather Stations Pressure Air Temp Water Temp Dewpoint Dewpoint Depression Visibility Wind Speed Wind Dir Waves Ship Positions

Madeline

Owner: TUG MADELINE, LLC, NEW CASTLE, DE. More information available from US FCC via Universal Licensing System and Coast Guard Vessel Documentation Center.

Last reported at 2015-Mar-30 22:33 UTC. Time now 2015-Mar-30 23:07 UTC.
Position N 39°53' W 075°11'.

; draft 4.6 m.

Type: Tug. MMSI: 367335830.

Date/timePositionNaut miles runAvg speedWind from/ knotsBaromVisibWave heightAir tempDewpointWater temp
2015-Mar-30 22:33N 39°53' W 075°11'0 0.0
2015-Mar-30 21:34N 39°53' W 075°11'0 0.4
2015-Mar-30 20:33N 39°53' W 075°11'1 1.3
2015-Mar-30 19:33N 39°52' W 075°13'2 1.7
2015-Mar-30 18:33N 39°53' W 075°11'0 0.0
2015-Mar-30 17:33N 39°53' W 075°11'0 0.0
2015-Mar-30 16:33N 39°53' W 075°11'0 0.0
2015-Mar-30 15:33N 39°53' W 075°11'0 0.0
2015-Mar-30 14:33N 39°53' W 075°11'0 0.0
2015-Mar-30 13:33N 39°53' W 075°11'0 0.0
2015-Mar-30 12:33N 39°53' W 075°11'0 0.0
2015-Mar-30 11:33N 39°53' W 075°11'1 1.3
2015-Mar-30 10:34N 39°53' W 075°10'1 1.3
2015-Mar-30 09:33N 39°53' W 075°11'0 0.0
2015-Mar-30 08:33N 39°53' W 075°11'0 0.0
2015-Mar-30 07:33N 39°53' W 075°11'0 0.0
2015-Mar-30 06:33N 39°53' W 075°11'0 0.0
2015-Mar-30 05:33N 39°53' W 075°11'0 0.0
2015-Mar-30 04:33N 39°53' W 075°11'0 0.0
2015-Mar-30 03:33N 39°53' W 075°11'0 0.0
2015-Mar-30 02:33N 39°53' W 075°11'0 0.0
2015-Mar-30 01:33N 39°53' W 075°11'3 2.5
2015-Mar-30 00:33N 39°54' W 075°08'5 5.0
2015-Mar-29 23:33N 39°51' W 075°14'0 0.0
2015-Mar-29 22:33N 39°51' W 075°14'2 1.6
2015-Mar-29 21:33N 39°51' W 075°16'2 2.1
2015-Mar-29 20:33N 39°51' W 075°18'5 5.5
2015-Mar-29 19:33N 39°49' W 075°25'0 0.0
2015-Mar-29 18:33N 39°49' W 075°25'0 0.0
2015-Mar-29 17:33N 39°49' W 075°25'0 0.0
2015-Mar-29 16:33N 39°49' W 075°25'0 0.0
2015-Mar-29 15:33N 39°49' W 075°25'0 0.0
2015-Mar-29 14:34N 39°49' W 075°25'0 0.0
2015-Mar-29 13:33N 39°49' W 075°25'0 0.0
2015-Mar-29 12:34N 39°49' W 075°25'0 0.0
2015-Mar-29 11:34N 39°49' W 075°25'0 0.0
2015-Mar-29 10:34N 39°49' W 075°25'0 0.0
2015-Mar-29 09:34N 39°49' W 075°25'0 0.0
2015-Mar-29 08:33N 39°49' W 075°25'0 0.0
2015-Mar-29 07:33N 39°49' W 075°25'0 0.0
2015-Mar-29 06:34N 39°49' W 075°25'0 0.0
2015-Mar-29 05:34N 39°49' W 075°25'0 0.0
2015-Mar-29 04:34N 39°49' W 075°25'1 0.7
2015-Mar-29 03:33N 39°49' W 075°24'6 5.7
2015-Mar-29 02:33N 39°51' W 075°17'1 0.8
2015-Mar-29 01:32N 39°51' W 075°16'0 0.3
2015-Mar-29 00:34N 39°51' W 075°16'0 0.0
2015-Mar-28 23:33N 39°51' W 075°16'0 0.0
2015-Mar-28 22:34N 39°51' W 075°16'6 6.1
2015-Mar-28 21:34N 39°49' W 075°23'4 3.8
2015-Mar-28 20:34N 39°51' W 075°19'3 2.9
2015-Mar-28 19:33N 39°51' W 075°16'0 0.0
2015-Mar-28 18:33N 39°51' W 075°16'0 0.0
2015-Mar-28 17:34N 39°51' W 075°16'0 0.0
2015-Mar-28 16:33N 39°51' W 075°16'4 4.2
2015-Mar-28 15:33N 39°53' W 075°11'0 0.1
2015-Mar-28 14:33N 39°53' W 075°11'0 0.0
2015-Mar-28 13:33N 39°53' W 075°11'0 0.0
2015-Mar-28 12:33N 39°53' W 075°11'0 0.0
2015-Mar-28 11:33N 39°53' W 075°11'0 0.0
2015-Mar-28 10:33N 39°53' W 075°11'0 0.0
2015-Mar-28 09:33N 39°53' W 075°11'0 0.0
2015-Mar-28 08:33N 39°53' W 075°11'1 1.2
2015-Mar-28 07:33N 39°53' W 075°10'0 0.0
2015-Mar-28 06:33N 39°53' W 075°10'1 1.2
2015-Mar-28 05:33N 39°53' W 075°11'0 0.0
2015-Mar-28 04:33N 39°53' W 075°11'1 1.3
2015-Mar-28 03:33N 39°52' W 075°12'3 3.2
2015-Mar-28 02:33N 39°51' W 075°16'0 0.1
2015-Mar-28 01:33N 39°51' W 075°16'3 2.8
2015-Mar-28 00:34N 39°51' W 075°20'4 4.0
2015-Mar-27 23:33N 39°51' W 075°15'3 3.2
2015-Mar-27 22:33N 39°53' W 075°11'0 0.0
2015-Mar-27 21:33N 39°53' W 075°11'0 0.0
2015-Mar-27 20:33N 39°53' W 075°11'0 0.0
2015-Mar-27 19:33N 39°53' W 075°11'0 0.0
2015-Mar-27 18:33N 39°53' W 075°11'0 0.0
2015-Mar-27 17:33N 39°53' W 075°11'0 0.0
2015-Mar-27 16:33N 39°53' W 075°11'0 0.0
2015-Mar-27 15:33N 39°53' W 075°11'2 2.3
2015-Mar-27 14:33N 39°54' W 075°08'0 0.0
2015-Mar-27 13:33N 39°54' W 075°08'2 2.3
2015-Mar-27 12:33N 39°53' W 075°11'0 0.0
2015-Mar-27 11:33N 39°53' W 075°11'0 0.3
2015-Mar-27 10:33N 39°53' W 075°11'0 0.3
2015-Mar-27 09:33N 39°53' W 075°11'0 0.0
2015-Mar-27 08:33N 39°53' W 075°11'0 0.0
2015-Mar-27 07:33N 39°53' W 075°11'0 0.0
2015-Mar-27 06:33N 39°53' W 075°11'0 0.0
2015-Mar-27 05:33N 39°53' W 075°11'0 0.0
2015-Mar-27 04:33N 39°53' W 075°11'0 0.0
2015-Mar-27 03:33N 39°53' W 075°11'0 0.0
2015-Mar-27 02:33N 39°53' W 075°11'0 0.0
2015-Mar-27 01:33N 39°53' W 075°11'0 0.0
2015-Mar-27 00:33N 39°53' W 075°11'9 9.4
2015-Mar-26 23:33N 39°50' W 075°22'2 1.9
2015-Mar-26 22:33N 39°49' W 075°24'0 0.2
2015-Mar-26 21:33N 39°49' W 075°25'0 0.3
2015-Mar-26 20:33N 39°49' W 075°24'0 0.0
2015-Mar-26 19:33N 39°49' W 075°24'1 0.5
2015-Mar-26 18:33N 39°49' W 075°24'1 0.5
2015-Mar-26 17:33N 39°49' W 075°24'0 0.4
2015-Mar-26 16:33N 39°49' W 075°25'0 0.0
2015-Mar-26 15:33N 39°49' W 075°25'0 0.0
2015-Mar-26 14:33N 39°49' W 075°25'0 0.0
2015-Mar-26 13:33N 39°49' W 075°25'0 0.0
2015-Mar-26 12:33N 39°49' W 075°25'0 0.0
2015-Mar-26 11:34N 39°49' W 075°25'0 0.0
2015-Mar-26 10:33N 39°49' W 075°25'0 0.0
2015-Mar-26 09:33N 39°49' W 075°25'0 0.0
2015-Mar-26 08:34N 39°49' W 075°25'0 0.0
2015-Mar-26 07:33N 39°49' W 075°25'0 0.0
2015-Mar-26 06:33N 39°49' W 075°25'1 1.0
2015-Mar-26 05:33N 39°48' W 075°26'0 0.1
2015-Mar-26 04:33N 39°48' W 075°26'0 0.0
2015-Mar-26 03:33N 39°48' W 075°26'0 0.0
2015-Mar-26 02:33N 39°48' W 075°26'0 0.0
2015-Mar-26 01:33N 39°48' W 075°26'0 0.0
2015-Mar-26 00:33N 39°48' W 075°26'1 1.4
2015-Mar-25 23:33N 39°49' W 075°24'1 0.6
2015-Mar-25 22:33N 39°49' W 075°25'0 0.0
2015-Mar-25 21:33N 39°49' W 075°25'0 0.0
2015-Mar-25 20:33N 39°49' W 075°25'0 0.0
2015-Mar-25 19:33N 39°49' W 075°25'0 0.0
2015-Mar-25 18:33N 39°49' W 075°25'0 0.0
2015-Mar-25 17:33N 39°49' W 075°25'0 0.0
2015-Mar-25 16:33N 39°49' W 075°25'0 0.0
2015-Mar-25 15:33N 39°49' W 075°25'7 0.2
2015-Mar-24 04:33N 39°43' W 075°32'0 0.0
2015-Mar-24 03:33N 39°43' W 075°32'0 0.0
2015-Mar-24 02:33N 39°43' W 075°32'3 2.8
2015-Mar-24 01:33N 39°40' W 075°32'3 2.7
2015-Mar-24 00:33N 39°43' W 075°31'0 0.0
2015-Mar-23 23:33N 39°43' W 075°31'0 0.0
2015-Mar-23 22:33N 39°43' W 075°31'0 0.0
2015-Mar-23 21:33N 39°43' W 075°31'8 8.3
2015-Mar-23 20:33N 39°36' W 075°36'3 2.8
2015-Mar-23 19:33N 39°34' W 075°33'3 3.1
2015-Mar-23 18:33N 39°36' W 075°36'7 7.2
2015-Mar-23 17:33N 39°42' W 075°31'1 1.1
2015-Mar-23 16:33N 39°43' W 075°31'0 0.1
2015-Mar-23 15:33N 39°43' W 075°31'1 0.8
2015-Mar-23 14:33N 39°42' W 075°31'1 0.7
2015-Mar-23 13:33N 39°43' W 075°31'0 0.0
2015-Mar-23 12:33N 39°43' W 075°31'0 0.0
2015-Mar-23 11:33N 39°43' W 075°31'0 0.0
2015-Mar-23 10:33N 39°43' W 075°31'1 1.3
2015-Mar-23 09:33N 39°42' W 075°31'1 1.3
2015-Mar-23 08:34N 39°43' W 075°31'0 0.0
2015-Mar-23 07:34N 39°43' W 075°31'0 0.0
2015-Mar-23 06:33N 39°43' W 075°31'0 0.0
2015-Mar-23 05:34N 39°43' W 075°31'0 0.0
2015-Mar-23 04:33N 39°43' W 075°31'0 0.0
2015-Mar-23 03:33N 39°43' W 075°31'0 0.0
2015-Mar-23 02:34N 39°43' W 075°31'0 0.0
2015-Mar-23 01:33N 39°43' W 075°31'0 0.0
2015-Mar-23 00:34N 39°43' W 075°31'0 0.0
2015-Mar-22 23:34N 39°43' W 075°31'0 0.0
2015-Mar-22 22:34N 39°43' W 075°31'0 0.0
2015-Mar-22 21:34N 39°43' W 075°31'2 2.4
2015-Mar-22 20:34N 39°41' W 075°32'6 6.4
2015-Mar-22 19:34N 39°35' W 075°34'1 0.8
2015-Mar-22 18:33N 39°35' W 075°35'0 0.2
2015-Mar-22 17:34N 39°35' W 075°36'0 0.0
2015-Mar-22 16:34N 39°35' W 075°36'0 0.0
2015-Mar-22 15:33N 39°35' W 075°36'0 0.0
2015-Mar-22 14:33N 39°35' W 075°36'0 0.0
2015-Mar-22 13:34N 39°35' W 075°36'0 0.0
2015-Mar-22 12:34N 39°35' W 075°36'0 0.0
2015-Mar-22 11:33N 39°35' W 075°36'0 0.0
2015-Mar-22 10:34N 39°35' W 075°36'0 0.0
2015-Mar-22 09:34N 39°35' W 075°36'0 0.0
2015-Mar-22 08:34N 39°35' W 075°36'0 0.0
2015-Mar-22 07:33N 39°35' W 075°36'0 0.0
2015-Mar-22 06:33N 39°35' W 075°36'0 0.1
2015-Mar-22 05:33N 39°35' W 075°36'0 0.0
2015-Mar-22 04:33N 39°35' W 075°36'0 0.0
2015-Mar-22 03:33N 39°35' W 075°36'0 0.0
2015-Mar-22 02:34N 39°35' W 075°36'0 0.0
2015-Mar-22 01:33N 39°35' W 075°36'0 0.0
2015-Mar-22 00:34N 39°35' W 075°36'0 0.0
2015-Mar-21 23:34N 39°35' W 075°36'0 0.0
2015-Mar-21 22:33N 39°35' W 075°36'0 0.0
2015-Mar-21 21:33N 39°35' W 075°36'0 0.0
2015-Mar-21 20:34N 39°35' W 075°36'0 0.2
2015-Mar-21 19:33N 39°35' W 075°35'0 0.2
2015-Mar-21 18:34N 39°35' W 075°35'1 1.4
2015-Mar-21 17:33N 39°35' W 075°33'7 6.6
2015-Mar-21 16:33N 39°41' W 075°31'7 7.5
2015-Mar-21 15:34N 39°48' W 075°26'1 1.2
2015-Mar-21 14:34N 39°49' W 075°25'0 0.0
2015-Mar-21 13:33N 39°49' W 075°25'0 0.0
2015-Mar-21 12:34N 39°49' W 075°25'0 0.0
2015-Mar-21 11:34N 39°49' W 075°25'0 0.0
2015-Mar-21 10:34N 39°49' W 075°25'0 0.0
2015-Mar-21 09:33N 39°49' W 075°25'0 0.0
2015-Mar-21 08:33N 39°49' W 075°25'0 0.0
2015-Mar-21 07:33N 39°49' W 075°25'0 0.0
2015-Mar-21 06:33N 39°49' W 075°25'0 0.0
2015-Mar-21 05:33N 39°49' W 075°25'0 0.0
2015-Mar-21 04:34N 39°49' W 075°25'0 0.0
2015-Mar-21 03:34N 39°49' W 075°25'0 0.0
2015-Mar-21 02:34N 39°49' W 075°25'0 0.0
2015-Mar-21 01:34N 39°49' W 075°25'0 0.0
2015-Mar-21 00:33N 39°49' W 075°25'0 0.0
2015-Mar-20 23:33N 39°49' W 075°25'0 0.0
2015-Mar-20 22:34N 39°49' W 075°25'  
Track history (hours):
 
Tides and Currents Weather Stations Pressure Air Temp Water Temp Dewpoint Dewpoint Depression Visibility Wind Speed Wind Dir Waves Ship Positions

Madeline

Owner: TUG MADELINE, LLC, NEW CASTLE, DE. More information available from US FCC via Universal Licensing System and Coast Guard Vessel Documentation Center.

Last reported at 2015-Mar-30 22:33 UTC. Time now 2015-Mar-30 23:07 UTC.
Position N 39°53' W 075°11'.

; draft 4.6 m.

Type: Tug. MMSI: 367335830.

Date/timePositionNaut miles runAvg speedWind from/ knotsBaromVisibWave heightAir tempDewpointWater temp
2015-Mar-30 22:33N 39°53' W 075°11'0 0.0
2015-Mar-30 21:34N 39°53' W 075°11'0 0.4
2015-Mar-30 20:33N 39°53' W 075°11'1 1.3
2015-Mar-30 19:33N 39°52' W 075°13'2 1.7
2015-Mar-30 18:33N 39°53' W 075°11'0 0.0
2015-Mar-30 17:33N 39°53' W 075°11'0 0.0
2015-Mar-30 16:33N 39°53' W 075°11'0 0.0
2015-Mar-30 15:33N 39°53' W 075°11'0 0.0
2015-Mar-30 14:33N 39°53' W 075°11'0 0.0
2015-Mar-30 13:33N 39°53' W 075°11'0 0.0
2015-Mar-30 12:33N 39°53' W 075°11'0 0.0
2015-Mar-30 11:33N 39°53' W 075°11'1 1.3
2015-Mar-30 10:34N 39°53' W 075°10'1 1.3
2015-Mar-30 09:33N 39°53' W 075°11'0 0.0
2015-Mar-30 08:33N 39°53' W 075°11'0 0.0
2015-Mar-30 07:33N 39°53' W 075°11'0 0.0
2015-Mar-30 06:33N 39°53' W 075°11'0 0.0
2015-Mar-30 05:33N 39°53' W 075°11'0 0.0
2015-Mar-30 04:33N 39°53' W 075°11'0 0.0
2015-Mar-30 03:33N 39°53' W 075°11'0 0.0
2015-Mar-30 02:33N 39°53' W 075°11'0 0.0
2015-Mar-30 01:33N 39°53' W 075°11'3 2.5
2015-Mar-30 00:33N 39°54' W 075°08'5 5.0
2015-Mar-29 23:33N 39°51' W 075°14'0 0.0
2015-Mar-29 22:33N 39°51' W 075°14'2 1.6
2015-Mar-29 21:33N 39°51' W 075°16'2 2.1
2015-Mar-29 20:33N 39°51' W 075°18'5 5.5
2015-Mar-29 19:33N 39°49' W 075°25'0 0.0
2015-Mar-29 18:33N 39°49' W 075°25'0 0.0
2015-Mar-29 17:33N 39°49' W 075°25'0 0.0
2015-Mar-29 16:33N 39°49' W 075°25'0 0.0
2015-Mar-29 15:33N 39°49' W 075°25'0 0.0
2015-Mar-29 14:34N 39°49' W 075°25'0 0.0
2015-Mar-29 13:33N 39°49' W 075°25'0 0.0
2015-Mar-29 12:34N 39°49' W 075°25'0 0.0
2015-Mar-29 11:34N 39°49' W 075°25'0 0.0
2015-Mar-29 10:34N 39°49' W 075°25'0 0.0
2015-Mar-29 09:34N 39°49' W 075°25'0 0.0
2015-Mar-29 08:33N 39°49' W 075°25'0 0.0
2015-Mar-29 07:33N 39°49' W 075°25'0 0.0
2015-Mar-29 06:34N 39°49' W 075°25'0 0.0
2015-Mar-29 05:34N 39°49' W 075°25'0 0.0
2015-Mar-29 04:34N 39°49' W 075°25'1 0.7
2015-Mar-29 03:33N 39°49' W 075°24'6 5.7
2015-Mar-29 02:33N 39°51' W 075°17'1 0.8
2015-Mar-29 01:32N 39°51' W 075°16'0 0.3
2015-Mar-29 00:34N 39°51' W 075°16'0 0.0
2015-Mar-28 23:33N 39°51' W 075°16'0 0.0
2015-Mar-28 22:34N 39°51' W 075°16'6 6.1
2015-Mar-28 21:34N 39°49' W 075°23'4 3.8
2015-Mar-28 20:34N 39°51' W 075°19'3 2.9
2015-Mar-28 19:33N 39°51' W 075°16'0 0.0
2015-Mar-28 18:33N 39°51' W 075°16'0 0.0
2015-Mar-28 17:34N 39°51' W 075°16'0 0.0
2015-Mar-28 16:33N 39°51' W 075°16'4 4.2
2015-Mar-28 15:33N 39°53' W 075°11'0 0.1
2015-Mar-28 14:33N 39°53' W 075°11'0 0.0
2015-Mar-28 13:33N 39°53' W 075°11'0 0.0
2015-Mar-28 12:33N 39°53' W 075°11'0 0.0
2015-Mar-28 11:33N 39°53' W 075°11'0 0.0
2015-Mar-28 10:33N 39°53' W 075°11'0 0.0
2015-Mar-28 09:33N 39°53' W 075°11'0 0.0
2015-Mar-28 08:33N 39°53' W 075°11'1 1.2
2015-Mar-28 07:33N 39°53' W 075°10'0 0.0
2015-Mar-28 06:33N 39°53' W 075°10'1 1.2
2015-Mar-28 05:33N 39°53' W 075°11'0 0.0
2015-Mar-28 04:33N 39°53' W 075°11'1 1.3
2015-Mar-28 03:33N 39°52' W 075°12'3 3.2
2015-Mar-28 02:33N 39°51' W 075°16'0 0.1
2015-Mar-28 01:33N 39°51' W 075°16'3 2.8
2015-Mar-28 00:34N 39°51' W 075°20'4 4.0
2015-Mar-27 23:33N 39°51' W 075°15'3 3.2
2015-Mar-27 22:33N 39°53' W 075°11'0 0.0
2015-Mar-27 21:33N 39°53' W 075°11'0 0.0
2015-Mar-27 20:33N 39°53' W 075°11'0 0.0
2015-Mar-27 19:33N 39°53' W 075°11'0 0.0
2015-Mar-27 18:33N 39°53' W 075°11'0 0.0
2015-Mar-27 17:33N 39°53' W 075°11'0 0.0
2015-Mar-27 16:33N 39°53' W 075°11'0 0.0
2015-Mar-27 15:33N 39°53' W 075°11'2 2.3
2015-Mar-27 14:33N 39°54' W 075°08'0 0.0
2015-Mar-27 13:33N 39°54' W 075°08'2 2.3
2015-Mar-27 12:33N 39°53' W 075°11'0 0.0
2015-Mar-27 11:33N 39°53' W 075°11'0 0.3
2015-Mar-27 10:33N 39°53' W 075°11'0 0.3
2015-Mar-27 09:33N 39°53' W 075°11'0 0.0
2015-Mar-27 08:33N 39°53' W 075°11'0 0.0
2015-Mar-27 07:33N 39°53' W 075°11'0 0.0
2015-Mar-27 06:33N 39°53' W 075°11'0 0.0
2015-Mar-27 05:33N 39°53' W 075°11'0 0.0
2015-Mar-27 04:33N 39°53' W 075°11'0 0.0
2015-Mar-27 03:33N 39°53' W 075°11'0 0.0
2015-Mar-27 02:33N 39°53' W 075°11'0 0.0
2015-Mar-27 01:33N 39°53' W 075°11'0 0.0
2015-Mar-27 00:33N 39°53' W 075°11'9 9.4
2015-Mar-26 23:33N 39°50' W 075°22'2 1.9
2015-Mar-26 22:33N 39°49' W 075°24'0 0.2
2015-Mar-26 21:33N 39°49' W 075°25'0 0.3
2015-Mar-26 20:33N 39°49' W 075°24'0 0.0
2015-Mar-26 19:33N 39°49' W 075°24'1 0.5
2015-Mar-26 18:33N 39°49' W 075°24'1 0.5
2015-Mar-26 17:33N 39°49' W 075°24'0 0.4
2015-Mar-26 16:33N 39°49' W 075°25'0 0.0
2015-Mar-26 15:33N 39°49' W 075°25'0 0.0
2015-Mar-26 14:33N 39°49' W 075°25'0 0.0
2015-Mar-26 13:33N 39°49' W 075°25'0 0.0
2015-Mar-26 12:33N 39°49' W 075°25'0 0.0
2015-Mar-26 11:34N 39°49' W 075°25'0 0.0
2015-Mar-26 10:33N 39°49' W 075°25'0 0.0
2015-Mar-26 09:33N 39°49' W 075°25'0 0.0
2015-Mar-26 08:34N 39°49' W 075°25'0 0.0
2015-Mar-26 07:33N 39°49' W 075°25'0 0.0
2015-Mar-26 06:33N 39°49' W 075°25'1 1.0
2015-Mar-26 05:33N 39°48' W 075°26'0 0.1
2015-Mar-26 04:33N 39°48' W 075°26'0 0.0
2015-Mar-26 03:33N 39°48' W 075°26'0 0.0
2015-Mar-26 02:33N 39°48' W 075°26'0 0.0
2015-Mar-26 01:33N 39°48' W 075°26'0 0.0
2015-Mar-26 00:33N 39°48' W 075°26'1 1.4
2015-Mar-25 23:33N 39°49' W 075°24'1 0.6
2015-Mar-25 22:33N 39°49' W 075°25'0 0.0
2015-Mar-25 21:33N 39°49' W 075°25'0 0.0
2015-Mar-25 20:33N 39°49' W 075°25'0 0.0
2015-Mar-25 19:33N 39°49' W 075°25'0 0.0
2015-Mar-25 18:33N 39°49' W 075°25'0 0.0
2015-Mar-25 17:33N 39°49' W 075°25'0 0.0
2015-Mar-25 16:33N 39°49' W 075°25'0 0.0
2015-Mar-25 15:33N 39°49' W 075°25'7 0.2
2015-Mar-24 04:33N 39°43' W 075°32'0 0.0
2015-Mar-24 03:33N 39°43' W 075°32'0 0.0
2015-Mar-24 02:33N 39°43' W 075°32'3 2.8
2015-Mar-24 01:33N 39°40' W 075°32'3 2.7
2015-Mar-24 00:33N 39°43' W 075°31'0 0.0
2015-Mar-23 23:33N 39°43' W 075°31'0 0.0
2015-Mar-23 22:33N 39°43' W 075°31'0 0.0
2015-Mar-23 21:33N 39°43' W 075°31'8 8.3
2015-Mar-23 20:33N 39°36' W 075°36'3 2.8
2015-Mar-23 19:33N 39°34' W 075°33'3 3.1
2015-Mar-23 18:33N 39°36' W 075°36'7 7.2
2015-Mar-23 17:33N 39°42' W 075°31'1 1.1
2015-Mar-23 16:33N 39°43' W 075°31'0 0.1
2015-Mar-23 15:33N 39°43' W 075°31'1 0.8
2015-Mar-23 14:33N 39°42' W 075°31'1 0.7
2015-Mar-23 13:33N 39°43' W 075°31'0 0.0
2015-Mar-23 12:33N 39°43' W 075°31'0 0.0
2015-Mar-23 11:33N 39°43' W 075°31'0 0.0
2015-Mar-23 10:33N 39°43' W 075°31'1 1.3
2015-Mar-23 09:33N 39°42' W 075°31'1 1.3
2015-Mar-23 08:34N 39°43' W 075°31'0 0.0
2015-Mar-23 07:34N 39°43' W 075°31'0 0.0
2015-Mar-23 06:33N 39°43' W 075°31'0 0.0
2015-Mar-23 05:34N 39°43' W 075°31'0 0.0
2015-Mar-23 04:33N 39°43' W 075°31'0 0.0
2015-Mar-23 03:33N 39°43' W 075°31'0 0.0
2015-Mar-23 02:34N 39°43' W 075°31'0 0.0
2015-Mar-23 01:33N 39°43' W 075°31'0 0.0
2015-Mar-23 00:34N 39°43' W 075°31'0 0.0
2015-Mar-22 23:34N 39°43' W 075°31'0 0.0
2015-Mar-22 22:34N 39°43' W 075°31'0 0.0
2015-Mar-22 21:34N 39°43' W 075°31'2 2.4
2015-Mar-22 20:34N 39°41' W 075°32'6 6.4
2015-Mar-22 19:34N 39°35' W 075°34'1 0.8
2015-Mar-22 18:33N 39°35' W 075°35'0 0.2
2015-Mar-22 17:34N 39°35' W 075°36'0 0.0
2015-Mar-22 16:34N 39°35' W 075°36'0 0.0
2015-Mar-22 15:33N 39°35' W 075°36'0 0.0
2015-Mar-22 14:33N 39°35' W 075°36'0 0.0
2015-Mar-22 13:34N 39°35' W 075°36'0 0.0
2015-Mar-22 12:34N 39°35' W 075°36'0 0.0
2015-Mar-22 11:33N 39°35' W 075°36'0 0.0
2015-Mar-22 10:34N 39°35' W 075°36'0 0.0
2015-Mar-22 09:34N 39°35' W 075°36'0 0.0
2015-Mar-22 08:34N 39°35' W 075°36'0 0.0
2015-Mar-22 07:33N 39°35' W 075°36'0 0.0
2015-Mar-22 06:33N 39°35' W 075°36'0 0.1
2015-Mar-22 05:33N 39°35' W 075°36'0 0.0
2015-Mar-22 04:33N 39°35' W 075°36'0 0.0
2015-Mar-22 03:33N 39°35' W 075°36'0 0.0
2015-Mar-22 02:34N 39°35' W 075°36'0 0.0
2015-Mar-22 01:33N 39°35' W 075°36'0 0.0
2015-Mar-22 00:34N 39°35' W 075°36'0 0.0
2015-Mar-21 23:34N 39°35' W 075°36'0 0.0
2015-Mar-21 22:33N 39°35' W 075°36'0 0.0
2015-Mar-21 21:33N 39°35' W 075°36'0 0.0
2015-Mar-21 20:34N 39°35' W 075°36'0 0.2
2015-Mar-21 19:33N 39°35' W 075°35'0 0.2
2015-Mar-21 18:34N 39°35' W 075°35'1 1.4
2015-Mar-21 17:33N 39°35' W 075°33'7 6.6
2015-Mar-21 16:33N 39°41' W 075°31'7 7.5
2015-Mar-21 15:34N 39°48' W 075°26'1 1.2
2015-Mar-21 14:34N 39°49' W 075°25'0 0.0
2015-Mar-21 13:33N 39°49' W 075°25'0 0.0
2015-Mar-21 12:34N 39°49' W 075°25'0 0.0
2015-Mar-21 11:34N 39°49' W 075°25'0 0.0
2015-Mar-21 10:34N 39°49' W 075°25'0 0.0
2015-Mar-21 09:33N 39°49' W 075°25'0 0.0
2015-Mar-21 08:33N 39°49' W 075°25'0 0.0
2015-Mar-21 07:33N 39°49' W 075°25'0 0.0
2015-Mar-21 06:33N 39°49' W 075°25'0 0.0
2015-Mar-21 05:33N 39°49' W 075°25'0 0.0
2015-Mar-21 04:34N 39°49' W 075°25'0 0.0
2015-Mar-21 03:34N 39°49' W 075°25'0 0.0
2015-Mar-21 02:34N 39°49' W 075°25'0 0.0
2015-Mar-21 01:34N 39°49' W 075°25'0 0.0
2015-Mar-21 00:33N 39°49' W 075°25'0 0.0
2015-Mar-20 23:33N 39°49' W 075°25'0 0.0
2015-Mar-20 22:34N 39°49' W 075°25'  

Dump ship's entire track history